sensor_id;sensor_type;location;lat;lon;timestamp;P1;durP1;ratioP1;P2;durP2;ratioP2
14118;SDS011;7138;49.246;9.100;2023-02-23T00:01:55;39.75;;;25.08;;
14118;SDS011;7138;49.246;9.100;2023-02-23T00:04:30;47.78;;;26.95;;
14118;SDS011;7138;49.246;9.100;2023-02-23T00:06:57;40.00;;;24.45;;
14118;SDS011;7138;49.246;9.100;2023-02-23T00:09:23;41.38;;;25.13;;
14118;SDS011;7138;49.246;9.100;2023-02-23T00:11:49;42.42;;;25.05;;
14118;SDS011;7138;49.246;9.100;2023-02-23T00:14:17;48.15;;;25.48;;
14118;SDS011;7138;49.246;9.100;2023-02-23T00:16:44;43.10;;;24.40;;
14118;SDS011;7138;49.246;9.100;2023-02-23T00:19:11;42.83;;;25.15;;
14118;SDS011;7138;49.246;9.100;2023-02-23T00:21:38;41.22;;;25.45;;
14118;SDS011;7138;49.246;9.100;2023-02-23T00:24:06;46.50;;;26.48;;
14118;SDS011;7138;49.246;9.100;2023-02-23T00:26:34;43.03;;;25.25;;
14118;SDS011;7138;49.246;9.100;2023-02-23T00:29:03;42.28;;;25.60;;
14118;SDS011;7138;49.246;9.100;2023-02-23T00:31:33;39.97;;;24.70;;
14118;SDS011;7138;49.246;9.100;2023-02-23T00:34:01;41.60;;;25.00;;
14118;SDS011;7138;49.246;9.100;2023-02-23T00:36:29;42.30;;;25.90;;
14118;SDS011;7138;49.246;9.100;2023-02-23T00:38:58;44.28;;;26.85;;
14118;SDS011;7138;49.246;9.100;2023-02-23T00:41:26;48.70;;;26.88;;
14118;SDS011;7138;49.246;9.100;2023-02-23T00:43:53;42.53;;;26.25;;
14118;SDS011;7138;49.246;9.100;2023-02-23T00:46:22;43.58;;;27.38;;
14118;SDS011;7138;49.246;9.100;2023-02-23T00:51:23;49.67;;;27.05;;
14118;SDS011;7138;49.246;9.100;2023-02-23T00:53:52;43.60;;;25.65;;
14118;SDS011;7138;49.246;9.100;2023-02-23T00:56:19;46.92;;;26.67;;
14118;SDS011;7138;49.246;9.100;2023-02-23T00:58:46;46.13;;;27.15;;
14118;SDS011;7138;49.246;9.100;2023-02-23T01:01:12;41.13;;;24.75;;
14118;SDS011;7138;49.246;9.100;2023-02-23T01:03:40;47.20;;;26.92;;
14118;SDS011;7138;49.246;9.100;2023-02-23T01:06:08;43.35;;;27.13;;
14118;SDS011;7138;49.246;9.100;2023-02-23T01:08:39;45.42;;;26.98;;
14118;SDS011;7138;49.246;9.100;2023-02-23T01:11:07;40.05;;;25.15;;
14118;SDS011;7138;49.246;9.100;2023-02-23T01:13:36;43.15;;;25.77;;
14118;SDS011;7138;49.246;9.100;2023-02-23T01:16:04;38.72;;;25.60;;
14118;SDS011;7138;49.246;9.100;2023-02-23T01:18:31;42.42;;;24.85;;
14118;SDS011;7138;49.246;9.100;2023-02-23T01:21:01;46.15;;;27.10;;
14118;SDS011;7138;49.246;9.100;2023-02-23T01:23:29;48.03;;;26.77;;
14118;SDS011;7138;49.246;9.100;2023-02-23T01:25:57;52.35;;;27.77;;
14118;SDS011;7138;49.246;9.100;2023-02-23T01:28:23;45.58;;;27.40;;
14118;SDS011;7138;49.246;9.100;2023-02-23T01:30:49;46.33;;;26.52;;
14118;SDS011;7138;49.246;9.100;2023-02-23T01:33:15;49.95;;;27.00;;
14118;SDS011;7138;49.246;9.100;2023-02-23T01:35:41;44.42;;;27.25;;
14118;SDS011;7138;49.246;9.100;2023-02-23T01:38:07;49.28;;;27.33;;
14118;SDS011;7138;49.246;9.100;2023-02-23T01:40:34;47.70;;;27.67;;
14118;SDS011;7138;49.246;9.100;2023-02-23T01:43:11;47.20;;;28.13;;
14118;SDS011;7138;49.246;9.100;2023-02-23T01:45:40;53.05;;;27.02;;
14118;SDS011;7138;49.246;9.100;2023-02-23T01:48:10;47.20;;;27.15;;
14118;SDS011;7138;49.246;9.100;2023-02-23T01:50:42;46.10;;;26.35;;
14118;SDS011;7138;49.246;9.100;2023-02-23T01:53:16;44.58;;;27.10;;
14118;SDS011;7138;49.246;9.100;2023-02-23T01:55:45;47.57;;;26.80;;
14118;SDS011;7138;49.246;9.100;2023-02-23T01:58:17;46.53;;;26.83;;
14118;SDS011;7138;49.246;9.100;2023-02-23T02:00:46;47.47;;;27.50;;
14118;SDS011;7138;49.246;9.100;2023-02-23T02:03:17;48.17;;;29.23;;
14118;SDS011;7138;49.246;9.100;2023-02-23T02:05:52;57.63;;;29.63;;
14118;SDS011;7138;49.246;9.100;2023-02-23T02:08:18;47.92;;;26.73;;
14118;SDS011;7138;49.246;9.100;2023-02-23T02:10:47;50.10;;;27.98;;
14118;SDS011;7138;49.246;9.100;2023-02-23T02:13:22;46.95;;;26.83;;
14118;SDS011;7138;49.246;9.100;2023-02-23T02:22:35;47.45;;;27.17;;
14118;SDS011;7138;49.246;9.100;2023-02-23T02:25:56;50.00;;;27.98;;
14118;SDS011;7138;49.246;9.100;2023-02-23T02:28:43;47.83;;;26.33;;
14118;SDS011;7138;49.246;9.100;2023-02-23T02:34:55;52.88;;;28.38;;
14118;SDS011;7138;49.246;9.100;2023-02-23T02:38:19;54.42;;;28.95;;
14118;SDS011;7138;49.246;9.100;2023-02-23T02:41:03;48.50;;;26.90;;
14118;SDS011;7138;49.246;9.100;2023-02-23T02:43:39;52.88;;;28.92;;
14118;SDS011;7138;49.246;9.100;2023-02-23T02:46:15;56.70;;;28.80;;
14118;SDS011;7138;49.246;9.100;2023-02-23T02:48:48;53.65;;;28.92;;
14118;SDS011;7138;49.246;9.100;2023-02-23T02:51:24;54.55;;;28.55;;
14118;SDS011;7138;49.246;9.100;2023-02-23T02:54:01;48.38;;;28.48;;
14118;SDS011;7138;49.246;9.100;2023-02-23T02:56:35;49.78;;;30.25;;
14118;SDS011;7138;49.246;9.100;2023-02-23T02:59:06;46.25;;;27.30;;
14118;SDS011;7138;49.246;9.100;2023-02-23T03:01:55;46.90;;;27.55;;
14118;SDS011;7138;49.246;9.100;2023-02-23T03:04:40;49.05;;;26.77;;
14118;SDS011;7138;49.246;9.100;2023-02-23T03:07:26;44.38;;;26.83;;
14118;SDS011;7138;49.246;9.100;2023-02-23T03:10:20;47.88;;;28.20;;
14118;SDS011;7138;49.246;9.100;2023-02-23T03:13:16;52.78;;;27.35;;
14118;SDS011;7138;49.246;9.100;2023-02-23T03:16:25;45.35;;;26.70;;
14118;SDS011;7138;49.246;9.100;2023-02-23T03:19:24;45.80;;;27.40;;
14118;SDS011;7138;49.246;9.100;2023-02-23T03:22:15;50.28;;;26.92;;
14118;SDS011;7138;49.246;9.100;2023-02-23T03:25:08;45.33;;;26.70;;
14118;SDS011;7138;49.246;9.100;2023-02-23T03:28:02;45.95;;;27.92;;
14118;SDS011;7138;49.246;9.100;2023-02-23T03:30:58;58.72;;;28.27;;
14118;SDS011;7138;49.246;9.100;2023-02-23T03:33:58;49.92;;;28.20;;
14118;SDS011;7138;49.246;9.100;2023-02-23T03:36:59;46.92;;;26.30;;
14118;SDS011;7138;49.246;9.100;2023-02-23T03:39:53;48.80;;;27.38;;
14118;SDS011;7138;49.246;9.100;2023-02-23T03:42:48;44.83;;;26.42;;
14118;SDS011;7138;49.246;9.100;2023-02-23T03:45:40;47.33;;;27.35;;
14118;SDS011;7138;49.246;9.100;2023-02-23T03:51:14;46.85;;;27.85;;
14118;SDS011;7138;49.246;9.100;2023-02-23T03:54:04;51.25;;;28.80;;
14118;SDS011;7138;49.246;9.100;2023-02-23T03:56:57;51.40;;;28.77;;
14118;SDS011;7138;49.246;9.100;2023-02-23T03:59:46;53.25;;;28.25;;
14118;SDS011;7138;49.246;9.100;2023-02-23T04:02:39;52.47;;;28.65;;
14118;SDS011;7138;49.246;9.100;2023-02-23T04:05:27;58.90;;;29.75;;
14118;SDS011;7138;49.246;9.100;2023-02-23T04:08:14;59.15;;;29.63;;
14118;SDS011;7138;49.246;9.100;2023-02-23T04:13:56;49.10;;;28.08;;
14118;SDS011;7138;49.246;9.100;2023-02-23T04:16:28;57.80;;;29.08;;
14118;SDS011;7138;49.246;9.100;2023-02-23T04:18:57;52.28;;;28.55;;
14118;SDS011;7138;49.246;9.100;2023-02-23T04:21:23;55.65;;;28.80;;
14118;SDS011;7138;49.246;9.100;2023-02-23T04:23:49;59.63;;;28.98;;
14118;SDS011;7138;49.246;9.100;2023-02-23T04:26:16;52.85;;;28.52;;
14118;SDS011;7138;49.246;9.100;2023-02-23T04:28:42;59.22;;;29.70;;
14118;SDS011;7138;49.246;9.100;2023-02-23T04:31:07;57.65;;;29.48;;
14118;SDS011;7138;49.246;9.100;2023-02-23T04:33:33;58.15;;;29.58;;
14118;SDS011;7138;49.246;9.100;2023-02-23T04:36:00;56.25;;;29.50;;
14118;SDS011;7138;49.246;9.100;2023-02-23T04:38:26;59.92;;;30.83;;
14118;SDS011;7138;49.246;9.100;2023-02-23T04:40:52;60.05;;;29.45;;
14118;SDS011;7138;49.246;9.100;2023-02-23T04:43:18;64.13;;;29.73;;
14118;SDS011;7138;49.246;9.100;2023-02-23T04:45:44;63.53;;;29.95;;
14118;SDS011;7138;49.246;9.100;2023-02-23T04:48:10;62.95;;;30.52;;
14118;SDS011;7138;49.246;9.100;2023-02-23T04:50:36;58.75;;;30.75;;
14118;SDS011;7138;49.246;9.100;2023-02-23T04:53:03;61.33;;;31.40;;
14118;SDS011;7138;49.246;9.100;2023-02-23T04:55:29;64.07;;;31.23;;
14118;SDS011;7138;49.246;9.100;2023-02-23T04:57:57;65.03;;;31.55;;
14118;SDS011;7138;49.246;9.100;2023-02-23T05:00:25;65.65;;;31.42;;
14118;SDS011;7138;49.246;9.100;2023-02-23T05:02:51;63.78;;;31.38;;
14118;SDS011;7138;49.246;9.100;2023-02-23T05:05:17;60.55;;;31.60;;
14118;SDS011;7138;49.246;9.100;2023-02-23T05:07:43;67.60;;;31.65;;
14118;SDS011;7138;49.246;9.100;2023-02-23T05:10:10;63.42;;;31.75;;
14118;SDS011;7138;49.246;9.100;2023-02-23T05:12:36;65.55;;;31.83;;
14118;SDS011;7138;49.246;9.100;2023-02-23T05:15:03;73.28;;;34.60;;
14118;SDS011;7138;49.246;9.100;2023-02-23T05:17:30;71.82;;;33.30;;
14118;SDS011;7138;49.246;9.100;2023-02-23T05:19:56;71.07;;;35.15;;
14118;SDS011;7138;49.246;9.100;2023-02-23T05:22:21;71.35;;;35.35;;
14118;SDS011;7138;49.246;9.100;2023-02-23T05:24:47;71.03;;;34.75;;
14118;SDS011;7138;49.246;9.100;2023-02-23T05:27:14;66.20;;;33.72;;
14118;SDS011;7138;49.246;9.100;2023-02-23T05:29:41;71.57;;;33.72;;
14118;SDS011;7138;49.246;9.100;2023-02-23T05:32:07;68.82;;;34.45;;
14118;SDS011;7138;49.246;9.100;2023-02-23T05:34:33;72.55;;;34.47;;
14118;SDS011;7138;49.246;9.100;2023-02-23T05:36:59;80.35;;;36.25;;
14118;SDS011;7138;49.246;9.100;2023-02-23T05:39:25;68.15;;;33.55;;
14118;SDS011;7138;49.246;9.100;2023-02-23T05:41:51;68.20;;;34.70;;
14118;SDS011;7138;49.246;9.100;2023-02-23T05:44:18;73.38;;;36.15;;
14118;SDS011;7138;49.246;9.100;2023-02-23T05:46:44;76.45;;;37.65;;
14118;SDS011;7138;49.246;9.100;2023-02-23T05:49:11;72.40;;;36.90;;
14118;SDS011;7138;49.246;9.100;2023-02-23T05:51:37;77.40;;;36.97;;
14118;SDS011;7138;49.246;9.100;2023-02-23T05:54:03;80.47;;;37.65;;
14118;SDS011;7138;49.246;9.100;2023-02-23T05:56:29;75.22;;;36.80;;
14118;SDS011;7138;49.246;9.100;2023-02-23T05:58:56;68.47;;;35.58;;
14118;SDS011;7138;49.246;9.100;2023-02-23T06:01:24;68.82;;;36.45;;
14118;SDS011;7138;49.246;9.100;2023-02-23T06:03:51;74.97;;;36.93;;
14118;SDS011;7138;49.246;9.100;2023-02-23T06:06:18;84.88;;;38.00;;
14118;SDS011;7138;49.246;9.100;2023-02-23T06:08:44;79.72;;;37.08;;
14118;SDS011;7138;49.246;9.100;2023-02-23T06:11:10;81.78;;;38.40;;
14118;SDS011;7138;49.246;9.100;2023-02-23T06:13:36;79.75;;;38.53;;
14118;SDS011;7138;49.246;9.100;2023-02-23T06:16:02;83.43;;;38.13;;
14118;SDS011;7138;49.246;9.100;2023-02-23T06:18:30;80.05;;;37.83;;
14118;SDS011;7138;49.246;9.100;2023-02-23T06:20:57;79.65;;;38.05;;
14118;SDS011;7138;49.246;9.100;2023-02-23T06:23:25;76.85;;;38.03;;
14118;SDS011;7138;49.246;9.100;2023-02-23T06:25:51;78.57;;;38.25;;
14118;SDS011;7138;49.246;9.100;2023-02-23T06:28:16;79.60;;;37.78;;
14118;SDS011;7138;49.246;9.100;2023-02-23T06:30:42;76.45;;;38.05;;
14118;SDS011;7138;49.246;9.100;2023-02-23T06:33:11;81.03;;;38.53;;
14118;SDS011;7138;49.246;9.100;2023-02-23T06:35:38;81.88;;;38.97;;
14118;SDS011;7138;49.246;9.100;2023-02-23T06:38:04;85.40;;;38.65;;
14118;SDS011;7138;49.246;9.100;2023-02-23T06:40:30;74.93;;;38.15;;
14118;SDS011;7138;49.246;9.100;2023-02-23T06:42:56;83.22;;;38.92;;
14118;SDS011;7138;49.246;9.100;2023-02-23T06:45:22;83.18;;;38.50;;
14118;SDS011;7138;49.246;9.100;2023-02-23T06:47:48;86.63;;;39.00;;
14118;SDS011;7138;49.246;9.100;2023-02-23T06:50:14;73.50;;;37.50;;
14118;SDS011;7138;49.246;9.100;2023-02-23T06:52:41;72.32;;;36.22;;
14118;SDS011;7138;49.246;9.100;2023-02-23T06:55:07;75.57;;;39.28;;
14118;SDS011;7138;49.246;9.100;2023-02-23T06:57:34;73.97;;;37.38;;
14118;SDS011;7138;49.246;9.100;2023-02-23T07:00:00;77.03;;;36.38;;
14118;SDS011;7138;49.246;9.100;2023-02-23T07:02:27;75.50;;;37.25;;
14118;SDS011;7138;49.246;9.100;2023-02-23T07:04:53;76.70;;;37.22;;
14118;SDS011;7138;49.246;9.100;2023-02-23T07:07:19;77.82;;;37.15;;
14118;SDS011;7138;49.246;9.100;2023-02-23T07:09:47;78.35;;;37.08;;
14118;SDS011;7138;49.246;9.100;2023-02-23T07:12:13;78.05;;;37.65;;
14118;SDS011;7138;49.246;9.100;2023-02-23T07:14:39;79.55;;;37.08;;
14118;SDS011;7138;49.246;9.100;2023-02-23T07:17:05;72.70;;;36.90;;
14118;SDS011;7138;49.246;9.100;2023-02-23T07:19:31;68.13;;;36.80;;
14118;SDS011;7138;49.246;9.100;2023-02-23T07:21:57;73.53;;;38.17;;
14118;SDS011;7138;49.246;9.100;2023-02-23T07:24:23;70.97;;;35.00;;
14118;SDS011;7138;49.246;9.100;2023-02-23T07:26:51;77.25;;;38.78;;
14118;SDS011;7138;49.246;9.100;2023-02-23T07:29:17;72.53;;;37.13;;
14118;SDS011;7138;49.246;9.100;2023-02-23T07:31:43;75.28;;;36.40;;
14118;SDS011;7138;49.246;9.100;2023-02-23T07:34:09;71.93;;;36.65;;
14118;SDS011;7138;49.246;9.100;2023-02-23T07:36:35;65.57;;;34.15;;
14118;SDS011;7138;49.246;9.100;2023-02-23T07:39:02;69.90;;;35.05;;
14118;SDS011;7138;49.246;9.100;2023-02-23T07:41:28;72.45;;;36.47;;
14118;SDS011;7138;49.246;9.100;2023-02-23T07:43:56;59.47;;;34.75;;
14118;SDS011;7138;49.246;9.100;2023-02-23T07:46:23;67.18;;;34.42;;
14118;SDS011;7138;49.246;9.100;2023-02-23T07:48:49;63.20;;;34.90;;
14118;SDS011;7138;49.246;9.100;2023-02-23T07:51:15;58.72;;;33.25;;
14118;SDS011;7138;49.246;9.100;2023-02-23T07:57:22;62.80;;;33.22;;
14118;SDS011;7138;49.246;9.100;2023-02-23T07:59:50;60.20;;;32.50;;
14118;SDS011;7138;49.246;9.100;2023-02-23T08:02:15;62.50;;;33.75;;
14118;SDS011;7138;49.246;9.100;2023-02-23T08:04:41;64.72;;;34.75;;
14118;SDS011;7138;49.246;9.100;2023-02-23T08:07:07;58.83;;;32.83;;
14118;SDS011;7138;49.246;9.100;2023-02-23T08:09:34;57.30;;;31.48;;
14118;SDS011;7138;49.246;9.100;2023-02-23T08:12:00;55.83;;;31.33;;
14118;SDS011;7138;49.246;9.100;2023-02-23T08:14:26;56.00;;;31.25;;
14118;SDS011;7138;49.246;9.100;2023-02-23T08:16:53;52.60;;;30.70;;
14118;SDS011;7138;49.246;9.100;2023-02-23T08:19:19;49.30;;;29.45;;
14118;SDS011;7138;49.246;9.100;2023-02-23T08:21:48;46.88;;;28.38;;
14118;SDS011;7138;49.246;9.100;2023-02-23T08:24:15;42.72;;;26.95;;
14118;SDS011;7138;49.246;9.100;2023-02-23T08:26:41;47.15;;;26.58;;
14118;SDS011;7138;49.246;9.100;2023-02-23T08:29:07;42.88;;;25.85;;
14118;SDS011;7138;49.246;9.100;2023-02-23T08:31:33;43.20;;;25.73;;
14118;SDS011;7138;49.246;9.100;2023-02-23T08:34:01;34.67;;;21.95;;
14118;SDS011;7138;49.246;9.100;2023-02-23T08:36:27;33.88;;;20.08;;
14118;SDS011;7138;49.246;9.100;2023-02-23T08:38:53;34.20;;;19.20;;
14118;SDS011;7138;49.246;9.100;2023-02-23T08:41:19;34.35;;;19.20;;
14118;SDS011;7138;49.246;9.100;2023-02-23T08:43:45;33.92;;;19.05;;
14118;SDS011;7138;49.246;9.100;2023-02-23T08:46:12;35.67;;;18.98;;
14118;SDS011;7138;49.246;9.100;2023-02-23T08:48:40;29.38;;;17.67;;
14118;SDS011;7138;49.246;9.100;2023-02-23T08:51:08;34.88;;;19.25;;
14118;SDS011;7138;49.246;9.100;2023-02-23T08:53:34;31.02;;;16.65;;
14118;SDS011;7138;49.246;9.100;2023-02-23T08:56:01;29.38;;;17.15;;
14118;SDS011;7138;49.246;9.100;2023-02-23T08:58:30;27.48;;;16.02;;
14118;SDS011;7138;49.246;9.100;2023-02-23T09:00:57;26.75;;;16.50;;
14118;SDS011;7138;49.246;9.100;2023-02-23T09:03:25;25.50;;;15.93;;
14118;SDS011;7138;49.246;9.100;2023-02-23T09:05:54;25.10;;;14.60;;
14118;SDS011;7138;49.246;9.100;2023-02-23T09:08:22;26.38;;;15.75;;
14118;SDS011;7138;49.246;9.100;2023-02-23T09:10:48;26.17;;;15.65;;
14118;SDS011;7138;49.246;9.100;2023-02-23T09:13:14;25.60;;;15.43;;
14118;SDS011;7138;49.246;9.100;2023-02-23T09:15:41;26.02;;;14.73;;
14118;SDS011;7138;49.246;9.100;2023-02-23T09:18:08;23.80;;;15.18;;
14118;SDS011;7138;49.246;9.100;2023-02-23T09:20:41;20.92;;;13.15;;
14118;SDS011;7138;49.246;9.100;2023-02-23T09:23:08;22.92;;;14.05;;
14118;SDS011;7138;49.246;9.100;2023-02-23T09:25:39;27.27;;;14.40;;
14118;SDS011;7138;49.246;9.100;2023-02-23T09:28:08;21.70;;;14.40;;
14118;SDS011;7138;49.246;9.100;2023-02-23T09:30:37;28.10;;;14.98;;
14118;SDS011;7138;49.246;9.100;2023-02-23T09:33:04;21.73;;;13.77;;
14118;SDS011;7138;49.246;9.100;2023-02-23T09:35:31;23.38;;;14.75;;
14118;SDS011;7138;49.246;9.100;2023-02-23T09:38:00;24.30;;;15.07;;
14118;SDS011;7138;49.246;9.100;2023-02-23T09:40:29;20.33;;;12.25;;
14118;SDS011;7138;49.246;9.100;2023-02-23T09:43:10;18.63;;;12.20;;
14118;SDS011;7138;49.246;9.100;2023-02-23T09:45:41;23.83;;;13.38;;
14118;SDS011;7138;49.246;9.100;2023-02-23T09:48:13;20.40;;;13.40;;
14118;SDS011;7138;49.246;9.100;2023-02-23T09:50:44;18.35;;;11.70;;
14118;SDS011;7138;49.246;9.100;2023-02-23T09:53:23;18.67;;;11.73;;
14118;SDS011;7138;49.246;9.100;2023-02-23T09:55:56;16.00;;;10.52;;
14118;SDS011;7138;49.246;9.100;2023-02-23T09:58:25;15.93;;;10.30;;
14118;SDS011;7138;49.246;9.100;2023-02-23T10:01:00;15.77;;;10.85;;
14118;SDS011;7138;49.246;9.100;2023-02-23T10:03:48;15.15;;;10.43;;
14118;SDS011;7138;49.246;9.100;2023-02-23T10:06:22;17.40;;;11.65;;
14118;SDS011;7138;49.246;9.100;2023-02-23T10:08:50;18.02;;;12.60;;
14118;SDS011;7138;49.246;9.100;2023-02-23T10:11:41;18.48;;;12.55;;
14118;SDS011;7138;49.246;9.100;2023-02-23T10:14:25;17.85;;;12.82;;
14118;SDS011;7138;49.246;9.100;2023-02-23T10:17:43;17.17;;;12.27;;
14118;SDS011;7138;49.246;9.100;2023-02-23T10:20:26;18.35;;;11.82;;
14118;SDS011;7138;49.246;9.100;2023-02-23T10:23:07;14.80;;;12.10;;
14118;SDS011;7138;49.246;9.100;2023-02-23T10:25:39;16.58;;;11.50;;
14118;SDS011;7138;49.246;9.100;2023-02-23T10:28:11;17.05;;;11.73;;
14118;SDS011;7138;49.246;9.100;2023-02-23T10:30:41;15.48;;;11.32;;
14118;SDS011;7138;49.246;9.100;2023-02-23T10:33:10;18.05;;;12.50;;
14118;SDS011;7138;49.246;9.100;2023-02-23T10:35:43;17.23;;;11.80;;
14118;SDS011;7138;49.246;9.100;2023-02-23T10:38:13;15.90;;;11.00;;
14118;SDS011;7138;49.246;9.100;2023-02-23T10:40:41;15.82;;;10.85;;
14118;SDS011;7138;49.246;9.100;2023-02-23T10:43:10;13.93;;;10.82;;
14118;SDS011;7138;49.246;9.100;2023-02-23T10:45:38;14.32;;;10.52;;
14118;SDS011;7138;49.246;9.100;2023-02-23T10:48:13;15.85;;;11.35;;
14118;SDS011;7138;49.246;9.100;2023-02-23T10:50:44;18.45;;;10.85;;
14118;SDS011;7138;49.246;9.100;2023-02-23T10:53:13;15.07;;;10.52;;
14118;SDS011;7138;49.246;9.100;2023-02-23T10:55:46;14.20;;;10.50;;
14118;SDS011;7138;49.246;9.100;2023-02-23T10:58:28;17.90;;;10.85;;
14118;SDS011;7138;49.246;9.100;2023-02-23T11:00:56;15.52;;;10.93;;
14118;SDS011;7138;49.246;9.100;2023-02-23T11:03:26;16.58;;;11.35;;
14118;SDS011;7138;49.246;9.100;2023-02-23T11:05:58;14.15;;;9.45;;
14118;SDS011;7138;49.246;9.100;2023-02-23T11:08:27;12.70;;;8.98;;
14118;SDS011;7138;49.246;9.100;2023-02-23T11:13:49;14.32;;;9.93;;
14118;SDS011;7138;49.246;9.100;2023-02-23T11:16:18;13.10;;;10.10;;
14118;SDS011;7138;49.246;9.100;2023-02-23T11:18:49;15.27;;;9.73;;
14118;SDS011;7138;49.246;9.100;2023-02-23T11:21:20;14.80;;;10.48;;
14118;SDS011;7138;49.246;9.100;2023-02-23T11:23:51;14.25;;;9.25;;
14118;SDS011;7138;49.246;9.100;2023-02-23T11:26:24;13.68;;;9.75;;
14118;SDS011;7138;49.246;9.100;2023-02-23T11:28:57;12.13;;;8.32;;
14118;SDS011;7138;49.246;9.100;2023-02-23T11:31:32;10.80;;;7.80;;
14118;SDS011;7138;49.246;9.100;2023-02-23T11:34:00;11.13;;;7.32;;
14118;SDS011;7138;49.246;9.100;2023-02-23T11:36:29;10.43;;;7.68;;
14118;SDS011;7138;49.246;9.100;2023-02-23T11:39:04;10.95;;;7.90;;
14118;SDS011;7138;49.246;9.100;2023-02-23T11:41:44;14.68;;;7.80;;
14118;SDS011;7138;49.246;9.100;2023-02-23T11:44:18;10.93;;;7.93;;
14118;SDS011;7138;49.246;9.100;2023-02-23T11:46:50;11.13;;;6.80;;
14118;SDS011;7138;49.246;9.100;2023-02-23T11:49:16;10.23;;;6.85;;
14118;SDS011;7138;49.246;9.100;2023-02-23T11:51:51;10.48;;;6.85;;
14118;SDS011;7138;49.246;9.100;2023-02-23T11:54:19;10.85;;;8.07;;
14118;SDS011;7138;49.246;9.100;2023-02-23T11:56:50;9.85;;;6.57;;
14118;SDS011;7138;49.246;9.100;2023-02-23T11:59:20;10.02;;;5.93;;
14118;SDS011;7138;49.246;9.100;2023-02-23T12:01:57;9.38;;;6.20;;
14118;SDS011;7138;49.246;9.100;2023-02-23T12:04:31;12.85;;;7.20;;
14118;SDS011;7138;49.246;9.100;2023-02-23T12:09:56;12.15;;;6.22;;
14118;SDS011;7138;49.246;9.100;2023-02-23T12:12:31;10.65;;;5.97;;
14118;SDS011;7138;49.246;9.100;2023-02-23T12:15:10;10.95;;;5.47;;
14118;SDS011;7138;49.246;9.100;2023-02-23T12:17:48;9.55;;;5.38;;
14118;SDS011;7138;49.246;9.100;2023-02-23T12:20:22;9.73;;;6.03;;
14118;SDS011;7138;49.246;9.100;2023-02-23T12:22:54;11.02;;;5.68;;
14118;SDS011;7138;49.246;9.100;2023-02-23T12:25:27;13.45;;;5.60;;
14118;SDS011;7138;49.246;9.100;2023-02-23T12:28:01;10.85;;;4.95;;
14118;SDS011;7138;49.246;9.100;2023-02-23T12:30:37;10.00;;;4.03;;
14118;SDS011;7138;49.246;9.100;2023-02-23T12:33:12;8.02;;;4.00;;
14118;SDS011;7138;49.246;9.100;2023-02-23T12:35:46;9.05;;;4.53;;
14118;SDS011;7138;49.246;9.100;2023-02-23T12:38:22;9.75;;;4.80;;
14118;SDS011;7138;49.246;9.100;2023-02-23T12:40:58;10.48;;;4.68;;
14118;SDS011;7138;49.246;9.100;2023-02-23T12:43:36;10.27;;;4.82;;
14118;SDS011;7138;49.246;9.100;2023-02-23T12:46:13;9.07;;;4.25;;
14118;SDS011;7138;49.246;9.100;2023-02-23T12:48:49;10.48;;;5.25;;
14118;SDS011;7138;49.246;9.100;2023-02-23T12:51:27;10.60;;;4.93;;
14118;SDS011;7138;49.246;9.100;2023-02-23T12:54:00;9.85;;;4.80;;
14118;SDS011;7138;49.246;9.100;2023-02-23T12:56:34;8.85;;;4.43;;
14118;SDS011;7138;49.246;9.100;2023-02-23T13:02:23;10.13;;;4.25;;
14118;SDS011;7138;49.246;9.100;2023-02-23T13:05:04;11.68;;;3.55;;
14118;SDS011;7138;49.246;9.100;2023-02-23T13:07:47;9.25;;;4.35;;
14118;SDS011;7138;49.246;9.100;2023-02-23T13:10:28;7.93;;;3.40;;
14118;SDS011;7138;49.246;9.100;2023-02-23T13:13:11;9.38;;;3.72;;
14118;SDS011;7138;49.246;9.100;2023-02-23T13:15:54;10.40;;;3.25;;
14118;SDS011;7138;49.246;9.100;2023-02-23T13:18:31;7.57;;;3.58;;
14118;SDS011;7138;49.246;9.100;2023-02-23T13:21:09;9.73;;;5.10;;
14118;SDS011;7138;49.246;9.100;2023-02-23T13:23:47;9.60;;;4.07;;
14118;SDS011;7138;49.246;9.100;2023-02-23T13:26:25;8.15;;;3.58;;
14118;SDS011;7138;49.246;9.100;2023-02-23T13:29:01;8.98;;;4.18;;
14118;SDS011;7138;49.246;9.100;2023-02-23T13:31:35;8.60;;;3.95;;
14118;SDS011;7138;49.246;9.100;2023-02-23T13:34:05;11.77;;;4.28;;
14118;SDS011;7138;49.246;9.100;2023-02-23T13:36:39;7.97;;;4.07;;
14118;SDS011;7138;49.246;9.100;2023-02-23T13:42:20;10.85;;;3.95;;
14118;SDS011;7138;49.246;9.100;2023-02-23T13:45:03;11.23;;;4.70;;
14118;SDS011;7138;49.246;9.100;2023-02-23T13:47:48;10.20;;;4.03;;
14118;SDS011;7138;49.246;9.100;2023-02-23T13:50:23;9.38;;;3.92;;
14118;SDS011;7138;49.246;9.100;2023-02-23T13:52:59;9.35;;;3.85;;
14118;SDS011;7138;49.246;9.100;2023-02-23T13:55:32;9.80;;;3.75;;
14118;SDS011;7138;49.246;9.100;2023-02-23T13:58:12;12.27;;;3.83;;
14118;SDS011;7138;49.246;9.100;2023-02-23T14:00:41;9.20;;;3.65;;
14118;SDS011;7138;49.246;9.100;2023-02-23T14:03:19;10.70;;;3.55;;
14118;SDS011;7138;49.246;9.100;2023-02-23T14:05:51;10.82;;;3.72;;
14118;SDS011;7138;49.246;9.100;2023-02-23T14:08:31;11.25;;;4.32;;
14118;SDS011;7138;49.246;9.100;2023-02-23T14:11:01;14.25;;;4.78;;
14118;SDS011;7138;49.246;9.100;2023-02-23T14:13:29;9.88;;;4.00;;
14118;SDS011;7138;49.246;9.100;2023-02-23T14:16:07;9.57;;;3.88;;
14118;SDS011;7138;49.246;9.100;2023-02-23T14:21:43;9.30;;;4.03;;
14118;SDS011;7138;49.246;9.100;2023-02-23T14:24:21;8.52;;;3.50;;
14118;SDS011;7138;49.246;9.100;2023-02-23T14:27:10;8.88;;;3.80;;
14118;SDS011;7138;49.246;9.100;2023-02-23T14:32:50;12.77;;;4.53;;
14118;SDS011;7138;49.246;9.100;2023-02-23T14:35:36;9.40;;;4.00;;
14118;SDS011;7138;49.246;9.100;2023-02-23T14:38:09;10.50;;;3.97;;
14118;SDS011;7138;49.246;9.100;2023-02-23T14:40:58;11.77;;;4.32;;
14118;SDS011;7138;49.246;9.100;2023-02-23T14:46:17;11.70;;;3.67;;
14118;SDS011;7138;49.246;9.100;2023-02-23T14:48:58;9.60;;;3.75;;
14118;SDS011;7138;49.246;9.100;2023-02-23T14:51:30;9.40;;;3.80;;
14118;SDS011;7138;49.246;9.100;2023-02-23T14:54:09;12.23;;;3.85;;
14118;SDS011;7138;49.246;9.100;2023-02-23T14:56:45;10.30;;;4.00;;
14118;SDS011;7138;49.246;9.100;2023-02-23T14:59:16;11.43;;;4.35;;
14118;SDS011;7138;49.246;9.100;2023-02-23T15:01:45;10.85;;;4.20;;
14118;SDS011;7138;49.246;9.100;2023-02-23T15:04:14;9.95;;;4.53;;
14118;SDS011;7138;49.246;9.100;2023-02-23T15:06:45;12.27;;;4.25;;
14118;SDS011;7138;49.246;9.100;2023-02-23T15:09:14;10.20;;;3.88;;
14118;SDS011;7138;49.246;9.100;2023-02-23T15:11:48;9.13;;;4.00;;
14118;SDS011;7138;49.246;9.100;2023-02-23T15:14:18;12.65;;;3.97;;
14118;SDS011;7138;49.246;9.100;2023-02-23T15:16:45;8.70;;;4.43;;
14118;SDS011;7138;49.246;9.100;2023-02-23T15:19:30;10.95;;;4.13;;
14118;SDS011;7138;49.246;9.100;2023-02-23T15:22:00;8.00;;;3.72;;
14118;SDS011;7138;49.246;9.100;2023-02-23T15:24:31;10.07;;;3.58;;
14118;SDS011;7138;49.246;9.100;2023-02-23T15:27:12;10.43;;;4.10;;
14118;SDS011;7138;49.246;9.100;2023-02-23T15:29:42;8.90;;;3.65;;
14118;SDS011;7138;49.246;9.100;2023-02-23T15:32:10;8.35;;;3.92;;
14118;SDS011;7138;49.246;9.100;2023-02-23T15:34:42;12.98;;;4.13;;
14118;SDS011;7138;49.246;9.100;2023-02-23T15:37:13;11.25;;;3.97;;
14118;SDS011;7138;49.246;9.100;2023-02-23T15:39:50;10.70;;;4.03;;
14118;SDS011;7138;49.246;9.100;2023-02-23T15:42:23;9.57;;;3.70;;
14118;SDS011;7138;49.246;9.100;2023-02-23T15:44:57;12.68;;;4.78;;
14118;SDS011;7138;49.246;9.100;2023-02-23T15:50:05;10.38;;;4.50;;
14118;SDS011;7138;49.246;9.100;2023-02-23T15:52:43;8.40;;;3.83;;
14118;SDS011;7138;49.246;9.100;2023-02-23T15:55:17;11.52;;;4.32;;
14118;SDS011;7138;49.246;9.100;2023-02-23T15:57:55;12.68;;;4.88;;